sensor_id;sensor_type;location;lat;lon;timestamp;P1;durP1;ratioP1;P2;durP2;ratioP2
15443;SDS011;7822;48.146;11.576;2023-04-24T00:00:03;1.33;;;1.23;;
15443;SDS011;7822;48.146;11.576;2023-04-24T00:02:33;1.40;;;1.30;;
15443;SDS011;7822;48.146;11.576;2023-04-24T00:05:04;1.30;;;1.20;;
15443;SDS011;7822;48.146;11.576;2023-04-24T00:07:32;1.33;;;1.17;;
15443;SDS011;7822;48.146;11.576;2023-04-24T00:10:00;1.60;;;1.50;;
15443;SDS011;7822;48.146;11.576;2023-04-24T00:12:28;1.13;;;1.03;;
15443;SDS011;7822;48.146;11.576;2023-04-24T00:14:55;1.70;;;1.57;;
15443;SDS011;7822;48.146;11.576;2023-04-24T00:17:23;1.20;;;1.17;;
15443;SDS011;7822;48.146;11.576;2023-04-24T00:19:52;1.07;;;1.07;;
15443;SDS011;7822;48.146;11.576;2023-04-24T00:22:24;1.40;;;1.30;;
15443;SDS011;7822;48.146;11.576;2023-04-24T00:24:52;1.20;;;1.17;;
15443;SDS011;7822;48.146;11.576;2023-04-24T00:27:20;1.53;;;1.43;;
15443;SDS011;7822;48.146;11.576;2023-04-24T00:29:48;1.30;;;1.20;;
15443;SDS011;7822;48.146;11.576;2023-04-24T00:32:15;1.30;;;1.20;;
15443;SDS011;7822;48.146;11.576;2023-04-24T00:34:44;1.13;;;1.13;;
15443;SDS011;7822;48.146;11.576;2023-04-24T00:37:13;1.17;;;1.10;;
15443;SDS011;7822;48.146;11.576;2023-04-24T00:39:41;0.93;;;0.93;;
15443;SDS011;7822;48.146;11.576;2023-04-24T00:42:09;1.40;;;1.30;;
15443;SDS011;7822;48.146;11.576;2023-04-24T00:44:37;1.00;;;1.00;;
15443;SDS011;7822;48.146;11.576;2023-04-24T00:47:05;1.30;;;1.20;;
15443;SDS011;7822;48.146;11.576;2023-04-24T00:49:33;1.20;;;1.10;;
15443;SDS011;7822;48.146;11.576;2023-04-24T00:52:01;1.50;;;1.40;;
15443;SDS011;7822;48.146;11.576;2023-04-24T00:54:35;1.33;;;1.23;;
15443;SDS011;7822;48.146;11.576;2023-04-24T00:57:03;1.33;;;1.23;;
15443;SDS011;7822;48.146;11.576;2023-04-24T00:59:31;1.70;;;1.60;;
15443;SDS011;7822;48.146;11.576;2023-04-24T01:01:59;1.53;;;1.43;;
15443;SDS011;7822;48.146;11.576;2023-04-24T01:04:27;1.07;;;1.00;;
15443;SDS011;7822;48.146;11.576;2023-04-24T01:06:54;1.30;;;1.20;;
15443;SDS011;7822;48.146;11.576;2023-04-24T01:09:23;1.40;;;1.30;;
15443;SDS011;7822;48.146;11.576;2023-04-24T01:11:52;1.10;;;1.10;;
15443;SDS011;7822;48.146;11.576;2023-04-24T01:14:20;1.43;;;1.33;;
15443;SDS011;7822;48.146;11.576;2023-04-24T01:16:48;1.40;;;1.30;;
15443;SDS011;7822;48.146;11.576;2023-04-24T01:19:15;1.17;;;1.07;;
15443;SDS011;7822;48.146;11.576;2023-04-24T01:21:45;1.50;;;1.40;;
15443;SDS011;7822;48.146;11.576;2023-04-24T01:24:17;1.40;;;1.30;;
15443;SDS011;7822;48.146;11.576;2023-04-24T01:26:45;1.50;;;1.40;;
15443;SDS011;7822;48.146;11.576;2023-04-24T01:29:13;1.37;;;1.27;;
15443;SDS011;7822;48.146;11.576;2023-04-24T01:31:41;1.40;;;1.30;;
15443;SDS011;7822;48.146;11.576;2023-04-24T01:34:09;1.23;;;1.20;;
15443;SDS011;7822;48.146;11.576;2023-04-24T01:36:37;1.50;;;1.40;;
15443;SDS011;7822;48.146;11.576;2023-04-24T01:39:06;1.40;;;1.30;;
15443;SDS011;7822;48.146;11.576;2023-04-24T01:41:35;1.27;;;1.17;;
15443;SDS011;7822;48.146;11.576;2023-04-24T01:44:03;0.93;;;0.93;;
15443;SDS011;7822;48.146;11.576;2023-04-24T01:46:30;1.03;;;1.03;;
15443;SDS011;7822;48.146;11.576;2023-04-24T01:49:00;1.20;;;1.10;;
15443;SDS011;7822;48.146;11.576;2023-04-24T01:51:28;1.40;;;1.30;;
15443;SDS011;7822;48.146;11.576;2023-04-24T01:53:56;0.83;;;0.83;;
15443;SDS011;7822;48.146;11.576;2023-04-24T01:56:24;1.20;;;1.10;;
15443;SDS011;7822;48.146;11.576;2023-04-24T01:58:54;1.13;;;1.10;;
15443;SDS011;7822;48.146;11.576;2023-04-24T02:01:23;1.20;;;1.10;;
15443;SDS011;7822;48.146;11.576;2023-04-24T02:03:51;1.30;;;1.20;;
15443;SDS011;7822;48.146;11.576;2023-04-24T02:06:19;1.20;;;1.10;;
15443;SDS011;7822;48.146;11.576;2023-04-24T02:08:46;1.10;;;1.10;;
15443;SDS011;7822;48.146;11.576;2023-04-24T02:11:14;1.13;;;1.03;;
15443;SDS011;7822;48.146;11.576;2023-04-24T02:13:41;0.93;;;0.93;;
15443;SDS011;7822;48.146;11.576;2023-04-24T02:16:10;1.00;;;1.00;;
15443;SDS011;7822;48.146;11.576;2023-04-24T02:18:38;1.13;;;1.03;;
15443;SDS011;7822;48.146;11.576;2023-04-24T02:21:06;1.30;;;1.20;;
15443;SDS011;7822;48.146;11.576;2023-04-24T02:23:33;1.10;;;0.90;;
15443;SDS011;7822;48.146;11.576;2023-04-24T02:26:01;1.20;;;1.10;;
15443;SDS011;7822;48.146;11.576;2023-04-24T02:28:29;1.20;;;1.10;;
15443;SDS011;7822;48.146;11.576;2023-04-24T02:30:57;0.90;;;0.90;;
15443;SDS011;7822;48.146;11.576;2023-04-24T02:33:26;1.00;;;1.00;;
15443;SDS011;7822;48.146;11.576;2023-04-24T02:35:53;1.27;;;1.17;;
15443;SDS011;7822;48.146;11.576;2023-04-24T02:38:21;0.90;;;0.90;;
15443;SDS011;7822;48.146;11.576;2023-04-24T02:40:49;1.10;;;1.00;;
15443;SDS011;7822;48.146;11.576;2023-04-24T02:43:17;1.23;;;1.17;;
15443;SDS011;7822;48.146;11.576;2023-04-24T02:45:45;0.87;;;0.87;;
15443;SDS011;7822;48.146;11.576;2023-04-24T02:48:12;1.00;;;1.00;;
15443;SDS011;7822;48.146;11.576;2023-04-24T02:50:41;0.90;;;0.90;;
15443;SDS011;7822;48.146;11.576;2023-04-24T02:53:09;1.63;;;1.27;;
15443;SDS011;7822;48.146;11.576;2023-04-24T02:55:37;1.30;;;1.20;;
15443;SDS011;7822;48.146;11.576;2023-04-24T02:58:04;0.83;;;0.83;;
15443;SDS011;7822;48.146;11.576;2023-04-24T03:00:32;0.83;;;0.83;;
15443;SDS011;7822;48.146;11.576;2023-04-24T03:03:00;1.30;;;1.20;;
15443;SDS011;7822;48.146;11.576;2023-04-24T03:05:29;1.10;;;1.07;;
15443;SDS011;7822;48.146;11.576;2023-04-24T03:07:58;1.00;;;1.00;;
15443;SDS011;7822;48.146;11.576;2023-04-24T03:10:25;1.00;;;0.90;;
15443;SDS011;7822;48.146;11.576;2023-04-24T03:12:53;1.30;;;1.20;;
15443;SDS011;7822;48.146;11.576;2023-04-24T03:15:21;0.97;;;0.90;;
15443;SDS011;7822;48.146;11.576;2023-04-24T03:17:49;0.90;;;0.90;;
15443;SDS011;7822;48.146;11.576;2023-04-24T03:20:18;0.93;;;0.93;;
15443;SDS011;7822;48.146;11.576;2023-04-24T03:22:46;0.93;;;0.93;;
15443;SDS011;7822;48.146;11.576;2023-04-24T03:25:15;0.90;;;0.90;;
15443;SDS011;7822;48.146;11.576;2023-04-24T03:27:43;1.13;;;1.03;;
15443;SDS011;7822;48.146;11.576;2023-04-24T03:30:11;0.83;;;0.83;;
15443;SDS011;7822;48.146;11.576;2023-04-24T03:32:38;1.20;;;1.10;;
15443;SDS011;7822;48.146;11.576;2023-04-24T03:35:06;0.97;;;0.97;;
15443;SDS011;7822;48.146;11.576;2023-04-24T03:37:35;0.97;;;0.97;;
15443;SDS011;7822;48.146;11.576;2023-04-24T03:40:02;1.10;;;1.00;;
15443;SDS011;7822;48.146;11.576;2023-04-24T03:42:33;0.90;;;0.90;;
15443;SDS011;7822;48.146;11.576;2023-04-24T03:45:04;1.00;;;0.97;;
15443;SDS011;7822;48.146;11.576;2023-04-24T03:47:32;1.33;;;0.93;;
15443;SDS011;7822;48.146;11.576;2023-04-24T03:50:01;1.00;;;0.90;;
15443;SDS011;7822;48.146;11.576;2023-04-24T03:52:29;1.00;;;0.90;;
15443;SDS011;7822;48.146;11.576;2023-04-24T03:54:56;1.20;;;1.10;;
15443;SDS011;7822;48.146;11.576;2023-04-24T03:57:24;0.90;;;0.90;;
15443;SDS011;7822;48.146;11.576;2023-04-24T03:59:53;1.13;;;1.03;;
15443;SDS011;7822;48.146;11.576;2023-04-24T04:02:21;0.70;;;0.70;;
15443;SDS011;7822;48.146;11.576;2023-04-24T04:04:49;1.20;;;1.10;;
15443;SDS011;7822;48.146;11.576;2023-04-24T04:07:17;1.00;;;1.00;;
15443;SDS011;7822;48.146;11.576;2023-04-24T04:09:45;0.97;;;0.97;;
15443;SDS011;7822;48.146;11.576;2023-04-24T04:12:12;0.80;;;0.80;;
15443;SDS011;7822;48.146;11.576;2023-04-24T04:14:40;1.00;;;1.00;;
15443;SDS011;7822;48.146;11.576;2023-04-24T04:17:09;0.70;;;0.70;;
15443;SDS011;7822;48.146;11.576;2023-04-24T04:19:37;0.70;;;0.70;;
15443;SDS011;7822;48.146;11.576;2023-04-24T04:22:04;0.90;;;0.90;;
15443;SDS011;7822;48.146;11.576;2023-04-24T04:24:34;1.07;;;1.00;;
15443;SDS011;7822;48.146;11.576;2023-04-24T04:27:04;0.90;;;0.90;;
15443;SDS011;7822;48.146;11.576;2023-04-24T04:29:32;1.00;;;1.00;;
15443;SDS011;7822;48.146;11.576;2023-04-24T04:32:02;0.90;;;0.90;;
15443;SDS011;7822;48.146;11.576;2023-04-24T04:34:32;0.90;;;0.90;;
15443;SDS011;7822;48.146;11.576;2023-04-24T04:36:59;0.90;;;0.90;;
15443;SDS011;7822;48.146;11.576;2023-04-24T04:39:28;0.80;;;0.80;;
15443;SDS011;7822;48.146;11.576;2023-04-24T04:41:56;0.80;;;0.80;;
15443;SDS011;7822;48.146;11.576;2023-04-24T04:44:24;0.80;;;0.80;;
15443;SDS011;7822;48.146;11.576;2023-04-24T04:46:55;0.80;;;0.80;;
15443;SDS011;7822;48.146;11.576;2023-04-24T04:49:24;0.93;;;0.90;;
15443;SDS011;7822;48.146;11.576;2023-04-24T04:51:56;0.90;;;0.90;;
15443;SDS011;7822;48.146;11.576;2023-04-24T04:54:23;1.43;;;0.93;;
15443;SDS011;7822;48.146;11.576;2023-04-24T04:56:51;0.90;;;0.90;;
15443;SDS011;7822;48.146;11.576;2023-04-24T04:59:18;0.80;;;0.80;;
15443;SDS011;7822;48.146;11.576;2023-04-24T05:01:46;0.90;;;0.90;;
15443;SDS011;7822;48.146;11.576;2023-04-24T05:04:14;1.13;;;0.90;;
15443;SDS011;7822;48.146;11.576;2023-04-24T05:06:42;1.37;;;0.97;;
15443;SDS011;7822;48.146;11.576;2023-04-24T05:09:11;0.90;;;0.90;;
15443;SDS011;7822;48.146;11.576;2023-04-24T05:11:39;1.10;;;1.00;;
15443;SDS011;7822;48.146;11.576;2023-04-24T05:14:06;0.83;;;0.83;;
15443;SDS011;7822;48.146;11.576;2023-04-24T05:16:34;0.80;;;0.80;;
15443;SDS011;7822;48.146;11.576;2023-04-24T05:19:03;0.77;;;0.77;;
15443;SDS011;7822;48.146;11.576;2023-04-24T05:21:31;0.90;;;0.90;;
15443;SDS011;7822;48.146;11.576;2023-04-24T05:23:58;0.80;;;0.80;;
15443;SDS011;7822;48.146;11.576;2023-04-24T05:26:27;1.07;;;0.87;;
15443;SDS011;7822;48.146;11.576;2023-04-24T05:28:55;0.87;;;0.87;;
15443;SDS011;7822;48.146;11.576;2023-04-24T05:31:22;0.83;;;0.83;;
15443;SDS011;7822;48.146;11.576;2023-04-24T05:33:51;1.10;;;1.00;;
15443;SDS011;7822;48.146;11.576;2023-04-24T05:36:19;0.87;;;0.87;;
15443;SDS011;7822;48.146;11.576;2023-04-24T05:38:46;0.90;;;0.80;;
15443;SDS011;7822;48.146;11.576;2023-04-24T05:41:14;1.40;;;1.00;;
15443;SDS011;7822;48.146;11.576;2023-04-24T05:43:43;1.00;;;0.90;;
15443;SDS011;7822;48.146;11.576;2023-04-24T05:46:11;0.80;;;0.80;;
15443;SDS011;7822;48.146;11.576;2023-04-24T05:48:39;1.20;;;1.00;;
15443;SDS011;7822;48.146;11.576;2023-04-24T05:51:07;1.00;;;1.00;;
15443;SDS011;7822;48.146;11.576;2023-04-24T05:53:36;0.80;;;0.80;;
15443;SDS011;7822;48.146;11.576;2023-04-24T05:56:03;0.80;;;0.80;;
15443;SDS011;7822;48.146;11.576;2023-04-24T05:58:31;0.80;;;0.80;;
15443;SDS011;7822;48.146;11.576;2023-04-24T06:01:00;0.80;;;0.80;;
15443;SDS011;7822;48.146;11.576;2023-04-24T06:03:29;0.90;;;0.90;;
15443;SDS011;7822;48.146;11.576;2023-04-24T06:05:57;0.90;;;0.90;;
15443;SDS011;7822;48.146;11.576;2023-04-24T06:08:24;0.97;;;0.87;;
15443;SDS011;7822;48.146;11.576;2023-04-24T06:10:52;0.97;;;0.80;;
15443;SDS011;7822;48.146;11.576;2023-04-24T06:13:20;0.80;;;0.80;;
15443;SDS011;7822;48.146;11.576;2023-04-24T06:15:48;0.60;;;0.60;;
15443;SDS011;7822;48.146;11.576;2023-04-24T06:18:17;0.77;;;0.77;;
15443;SDS011;7822;48.146;11.576;2023-04-24T06:20:44;0.70;;;0.70;;
15443;SDS011;7822;48.146;11.576;2023-04-24T06:23:12;0.70;;;0.70;;
15443;SDS011;7822;48.146;11.576;2023-04-24T06:25:40;1.17;;;0.87;;
15443;SDS011;7822;48.146;11.576;2023-04-24T06:28:07;0.60;;;0.60;;
15443;SDS011;7822;48.146;11.576;2023-04-24T06:30:35;0.90;;;0.90;;
15443;SDS011;7822;48.146;11.576;2023-04-24T06:33:03;0.83;;;0.83;;
15443;SDS011;7822;48.146;11.576;2023-04-24T06:35:46;1.00;;;0.90;;
15443;SDS011;7822;48.146;11.576;2023-04-24T06:38:14;0.80;;;0.80;;
15443;SDS011;7822;48.146;11.576;2023-04-24T06:40:42;0.90;;;0.80;;
15443;SDS011;7822;48.146;11.576;2023-04-24T06:43:10;0.70;;;0.70;;
15443;SDS011;7822;48.146;11.576;2023-04-24T06:45:38;0.60;;;0.60;;
15443;SDS011;7822;48.146;11.576;2023-04-24T06:48:06;0.70;;;0.70;;
15443;SDS011;7822;48.146;11.576;2023-04-24T06:50:34;1.13;;;1.13;;
15443;SDS011;7822;48.146;11.576;2023-04-24T06:53:03;0.70;;;0.70;;
15443;SDS011;7822;48.146;11.576;2023-04-24T06:55:30;0.80;;;0.80;;
15443;SDS011;7822;48.146;11.576;2023-04-24T06:57:58;0.70;;;0.70;;
15443;SDS011;7822;48.146;11.576;2023-04-24T07:00:26;0.70;;;0.70;;
15443;SDS011;7822;48.146;11.576;2023-04-24T07:02:53;0.87;;;0.87;;
15443;SDS011;7822;48.146;11.576;2023-04-24T07:05:21;0.90;;;0.90;;
15443;SDS011;7822;48.146;11.576;2023-04-24T07:07:49;0.70;;;0.70;;
15443;SDS011;7822;48.146;11.576;2023-04-24T07:10:18;0.90;;;0.90;;
15443;SDS011;7822;48.146;11.576;2023-04-24T07:12:47;0.70;;;0.70;;
15443;SDS011;7822;48.146;11.576;2023-04-24T07:15:15;0.70;;;0.70;;
15443;SDS011;7822;48.146;11.576;2023-04-24T07:17:43;0.90;;;0.90;;
15443;SDS011;7822;48.146;11.576;2023-04-24T07:20:11;0.93;;;0.93;;
15443;SDS011;7822;48.146;11.576;2023-04-24T07:22:40;1.10;;;1.00;;
15443;SDS011;7822;48.146;11.576;2023-04-24T07:25:08;0.83;;;0.80;;
15443;SDS011;7822;48.146;11.576;2023-04-24T07:27:37;0.70;;;0.70;;
15443;SDS011;7822;48.146;11.576;2023-04-24T07:30:05;0.80;;;0.80;;
15443;SDS011;7822;48.146;11.576;2023-04-24T07:32:34;1.00;;;0.90;;
15443;SDS011;7822;48.146;11.576;2023-04-24T07:35:02;0.70;;;0.70;;
15443;SDS011;7822;48.146;11.576;2023-04-24T07:37:30;0.70;;;0.70;;
15443;SDS011;7822;48.146;11.576;2023-04-24T07:39:57;0.80;;;0.80;;
15443;SDS011;7822;48.146;11.576;2023-04-24T07:42:25;0.60;;;0.60;;
15443;SDS011;7822;48.146;11.576;2023-04-24T07:44:54;0.80;;;0.80;;
15443;SDS011;7822;48.146;11.576;2023-04-24T07:47:22;0.70;;;0.70;;
15443;SDS011;7822;48.146;11.576;2023-04-24T07:49:50;0.83;;;0.83;;
15443;SDS011;7822;48.146;11.576;2023-04-24T07:52:17;0.50;;;0.50;;
15443;SDS011;7822;48.146;11.576;2023-04-24T07:54:45;0.90;;;0.70;;
15443;SDS011;7822;48.146;11.576;2023-04-24T07:57:12;0.53;;;0.53;;
15443;SDS011;7822;48.146;11.576;2023-04-24T07:59:40;1.20;;;1.10;;
15443;SDS011;7822;48.146;11.576;2023-04-24T08:02:10;0.70;;;0.70;;
15443;SDS011;7822;48.146;11.576;2023-04-24T08:04:38;0.70;;;0.70;;
15443;SDS011;7822;48.146;11.576;2023-04-24T08:07:06;1.03;;;0.70;;
15443;SDS011;7822;48.146;11.576;2023-04-24T08:09:34;0.77;;;0.70;;
15443;SDS011;7822;48.146;11.576;2023-04-24T08:12:01;0.97;;;0.80;;
15443;SDS011;7822;48.146;11.576;2023-04-24T08:14:29;0.80;;;0.70;;
15443;SDS011;7822;48.146;11.576;2023-04-24T08:16:57;0.60;;;0.60;;
15443;SDS011;7822;48.146;11.576;2023-04-24T08:19:27;1.00;;;1.00;;
15443;SDS011;7822;48.146;11.576;2023-04-24T08:21:55;0.70;;;0.63;;
15443;SDS011;7822;48.146;11.576;2023-04-24T08:24:23;0.63;;;0.63;;
15443;SDS011;7822;48.146;11.576;2023-04-24T08:26:50;1.10;;;0.70;;
15443;SDS011;7822;48.146;11.576;2023-04-24T08:29:20;1.00;;;0.80;;
15443;SDS011;7822;48.146;11.576;2023-04-24T08:31:48;0.70;;;0.70;;
15443;SDS011;7822;48.146;11.576;2023-04-24T08:34:15;0.60;;;0.60;;
15443;SDS011;7822;48.146;11.576;2023-04-24T08:36:44;0.73;;;0.73;;
15443;SDS011;7822;48.146;11.576;2023-04-24T08:39:13;0.80;;;0.80;;
15443;SDS011;7822;48.146;11.576;2023-04-24T08:41:41;0.87;;;0.87;;
15443;SDS011;7822;48.146;11.576;2023-04-24T08:44:11;0.73;;;0.73;;
15443;SDS011;7822;48.146;11.576;2023-04-24T08:46:42;0.70;;;0.70;;
15443;SDS011;7822;48.146;11.576;2023-04-24T08:49:11;0.50;;;0.50;;
15443;SDS011;7822;48.146;11.576;2023-04-24T08:51:42;0.80;;;0.80;;
15443;SDS011;7822;48.146;11.576;2023-04-24T08:56:42;0.60;;;0.60;;
15443;SDS011;7822;48.146;11.576;2023-04-24T08:59:11;0.73;;;0.73;;
15443;SDS011;7822;48.146;11.576;2023-04-24T09:01:39;0.60;;;0.60;;
15443;SDS011;7822;48.146;11.576;2023-04-24T09:04:08;0.73;;;0.73;;
15443;SDS011;7822;48.146;11.576;2023-04-24T09:06:39;0.60;;;0.60;;
15443;SDS011;7822;48.146;11.576;2023-04-24T09:09:06;0.63;;;0.63;;
15443;SDS011;7822;48.146;11.576;2023-04-24T09:11:39;0.60;;;0.60;;
15443;SDS011;7822;48.146;11.576;2023-04-24T09:14:07;0.80;;;0.80;;
15443;SDS011;7822;48.146;11.576;2023-04-24T09:16:36;0.80;;;0.70;;
15443;SDS011;7822;48.146;11.576;2023-04-24T09:19:04;0.67;;;0.63;;
15443;SDS011;7822;48.146;11.576;2023-04-24T09:21:32;0.70;;;0.70;;
15443;SDS011;7822;48.146;11.576;2023-04-24T09:24:01;0.70;;;0.70;;
15443;SDS011;7822;48.146;11.576;2023-04-24T09:26:30;0.60;;;0.60;;
15443;SDS011;7822;48.146;11.576;2023-04-24T09:29:01;0.80;;;0.60;;
15443;SDS011;7822;48.146;11.576;2023-04-24T09:31:31;1.80;;;1.00;;
15443;SDS011;7822;48.146;11.576;2023-04-24T09:34:00;0.70;;;0.70;;
15443;SDS011;7822;48.146;11.576;2023-04-24T09:36:32;0.53;;;0.53;;
15443;SDS011;7822;48.146;11.576;2023-04-24T09:39:04;0.60;;;0.60;;
15443;SDS011;7822;48.146;11.576;2023-04-24T09:41:34;0.67;;;0.67;;
15443;SDS011;7822;48.146;11.576;2023-04-24T09:44:11;0.60;;;0.60;;
15443;SDS011;7822;48.146;11.576;2023-04-24T09:46:41;0.90;;;0.90;;
15443;SDS011;7822;48.146;11.576;2023-04-24T09:49:09;0.80;;;0.63;;
15443;SDS011;7822;48.146;11.576;2023-04-24T09:51:39;0.80;;;0.80;;
15443;SDS011;7822;48.146;11.576;2023-04-24T09:54:13;0.60;;;0.60;;
15443;SDS011;7822;48.146;11.576;2023-04-24T09:56:43;0.60;;;0.57;;
15443;SDS011;7822;48.146;11.576;2023-04-24T09:59:13;0.60;;;0.60;;
15443;SDS011;7822;48.146;11.576;2023-04-24T10:01:41;0.70;;;0.70;;
15443;SDS011;7822;48.146;11.576;2023-04-24T10:04:17;0.70;;;0.70;;
15443;SDS011;7822;48.146;11.576;2023-04-24T10:06:46;0.80;;;0.80;;
15443;SDS011;7822;48.146;11.576;2023-04-24T10:09:15;0.80;;;0.80;;
15443;SDS011;7822;48.146;11.576;2023-04-24T10:11:44;0.50;;;0.50;;
15443;SDS011;7822;48.146;11.576;2023-04-24T10:14:15;0.60;;;0.60;;
15443;SDS011;7822;48.146;11.576;2023-04-24T10:16:44;0.70;;;0.70;;
15443;SDS011;7822;48.146;11.576;2023-04-24T10:19:13;0.60;;;0.60;;
15443;SDS011;7822;48.146;11.576;2023-04-24T10:21:42;0.50;;;0.50;;
15443;SDS011;7822;48.146;11.576;2023-04-24T10:24:13;0.73;;;0.73;;
15443;SDS011;7822;48.146;11.576;2023-04-24T10:26:42;0.60;;;0.60;;
15443;SDS011;7822;48.146;11.576;2023-04-24T10:29:11;0.80;;;0.80;;
15443;SDS011;7822;48.146;11.576;2023-04-24T10:31:43;0.63;;;0.63;;
15443;SDS011;7822;48.146;11.576;2023-04-24T10:34:13;0.53;;;0.53;;
15443;SDS011;7822;48.146;11.576;2023-04-24T10:36:43;0.50;;;0.50;;
15443;SDS011;7822;48.146;11.576;2023-04-24T10:39:15;0.60;;;0.60;;
15443;SDS011;7822;48.146;11.576;2023-04-24T10:41:44;0.60;;;0.60;;
15443;SDS011;7822;48.146;11.576;2023-04-24T10:44:13;0.67;;;0.60;;
15443;SDS011;7822;48.146;11.576;2023-04-24T10:46:44;0.70;;;0.70;;
15443;SDS011;7822;48.146;11.576;2023-04-24T10:49:13;0.57;;;0.57;;
15443;SDS011;7822;48.146;11.576;2023-04-24T10:51:45;0.60;;;0.60;;
15443;SDS011;7822;48.146;11.576;2023-04-24T10:54:24;0.60;;;0.60;;
15443;SDS011;7822;48.146;11.576;2023-04-24T10:56:53;0.50;;;0.50;;
15443;SDS011;7822;48.146;11.576;2023-04-24T10:59:41;0.50;;;0.50;;
15443;SDS011;7822;48.146;11.576;2023-04-24T11:02:10;0.60;;;0.60;;
15443;SDS011;7822;48.146;11.576;2023-04-24T11:04:38;0.70;;;0.70;;
15443;SDS011;7822;48.146;11.576;2023-04-24T11:07:05;0.70;;;0.70;;
15443;SDS011;7822;48.146;11.576;2023-04-24T11:09:33;0.70;;;0.70;;
15443;SDS011;7822;48.146;11.576;2023-04-24T11:12:03;0.50;;;0.50;;
15443;SDS011;7822;48.146;11.576;2023-04-24T11:17:33;0.50;;;0.50;;
15443;SDS011;7822;48.146;11.576;2023-04-24T11:20:03;0.63;;;0.60;;
15443;SDS011;7822;48.146;11.576;2023-04-24T11:22:52;0.50;;;0.50;;
15443;SDS011;7822;48.146;11.576;2023-04-24T11:25:23;0.57;;;0.57;;
15443;SDS011;7822;48.146;11.576;2023-04-24T11:27:52;0.50;;;0.50;;
15443;SDS011;7822;48.146;11.576;2023-04-24T11:30:31;0.50;;;0.50;;
15443;SDS011;7822;48.146;11.576;2023-04-24T11:33:03;0.57;;;0.57;;
15443;SDS011;7822;48.146;11.576;2023-04-24T11:35:35;0.73;;;0.73;;
15443;SDS011;7822;48.146;11.576;2023-04-24T11:38:04;0.40;;;0.40;;
15443;SDS011;7822;48.146;11.576;2023-04-24T11:40:36;0.40;;;0.40;;
15443;SDS011;7822;48.146;11.576;2023-04-24T11:43:06;0.50;;;0.50;;
15443;SDS011;7822;48.146;11.576;2023-04-24T11:45:35;0.80;;;0.80;;
15443;SDS011;7822;48.146;11.576;2023-04-24T11:48:04;0.60;;;0.60;;
15443;SDS011;7822;48.146;11.576;2023-04-24T11:50:32;0.50;;;0.50;;
15443;SDS011;7822;48.146;11.576;2023-04-24T11:53:00;0.67;;;0.60;;
15443;SDS011;7822;48.146;11.576;2023-04-24T11:55:28;0.70;;;0.60;;
15443;SDS011;7822;48.146;11.576;2023-04-24T11:57:57;0.57;;;0.57;;
15443;SDS011;7822;48.146;11.576;2023-04-24T12:00:27;0.60;;;0.60;;
15443;SDS011;7822;48.146;11.576;2023-04-24T12:03:04;0.60;;;0.60;;
15443;SDS011;7822;48.146;11.576;2023-04-24T12:05:33;0.67;;;0.67;;
15443;SDS011;7822;48.146;11.576;2023-04-24T12:08:02;1.30;;;0.70;;
15443;SDS011;7822;48.146;11.576;2023-04-24T12:10:31;0.70;;;0.70;;
15443;SDS011;7822;48.146;11.576;2023-04-24T12:12:59;0.83;;;0.83;;
15443;SDS011;7822;48.146;11.576;2023-04-24T12:15:27;0.90;;;0.90;;
15443;SDS011;7822;48.146;11.576;2023-04-24T12:17:55;0.47;;;0.47;;
15443;SDS011;7822;48.146;11.576;2023-04-24T12:20:26;0.80;;;0.63;;
15443;SDS011;7822;48.146;11.576;2023-04-24T12:22:55;0.60;;;0.60;;
15443;SDS011;7822;48.146;11.576;2023-04-24T12:25:24;1.97;;;0.80;;
15443;SDS011;7822;48.146;11.576;2023-04-24T12:27:53;1.03;;;0.93;;
15443;SDS011;7822;48.146;11.576;2023-04-24T12:30:26;0.80;;;0.80;;
15443;SDS011;7822;48.146;11.576;2023-04-24T12:32:56;1.20;;;0.90;;
15443;SDS011;7822;48.146;11.576;2023-04-24T12:35:27;1.40;;;0.80;;
15443;SDS011;7822;48.146;11.576;2023-04-24T12:37:55;1.87;;;1.10;;
15443;SDS011;7822;48.146;11.576;2023-04-24T12:40:32;1.40;;;0.90;;
15443;SDS011;7822;48.146;11.576;2023-04-24T12:43:00;0.83;;;0.70;;
15443;SDS011;7822;48.146;11.576;2023-04-24T12:45:27;1.10;;;1.00;;
15443;SDS011;7822;48.146;11.576;2023-04-24T12:47:55;2.40;;;1.10;;
15443;SDS011;7822;48.146;11.576;2023-04-24T12:50:23;1.33;;;0.83;;
15443;SDS011;7822;48.146;11.576;2023-04-24T12:52:52;1.00;;;1.00;;
15443;SDS011;7822;48.146;11.576;2023-04-24T12:55:20;1.27;;;0.97;;
15443;SDS011;7822;48.146;11.576;2023-04-24T12:57:47;3.47;;;1.00;;
15443;SDS011;7822;48.146;11.576;2023-04-24T13:00:15;2.70;;;1.10;;
15443;SDS011;7822;48.146;11.576;2023-04-24T13:02:45;2.57;;;1.33;;
15443;SDS011;7822;48.146;11.576;2023-04-24T13:05:13;1.40;;;1.00;;
15443;SDS011;7822;48.146;11.576;2023-04-24T13:07:41;1.43;;;0.93;;
15443;SDS011;7822;48.146;11.576;2023-04-24T13:10:10;2.10;;;1.00;;
15443;SDS011;7822;48.146;11.576;2023-04-24T13:12:39;1.63;;;1.00;;
15443;SDS011;7822;48.146;11.576;2023-04-24T13:15:07;1.73;;;1.00;;
15443;SDS011;7822;48.146;11.576;2023-04-24T13:17:35;0.80;;;0.80;;
15443;SDS011;7822;48.146;11.576;2023-04-24T13:20:05;2.23;;;1.27;;
15443;SDS011;7822;48.146;11.576;2023-04-24T13:22:33;1.63;;;1.00;;
15443;SDS011;7822;48.146;11.576;2023-04-24T13:25:01;1.20;;;0.80;;
15443;SDS011;7822;48.146;11.576;2023-04-24T13:27:30;2.27;;;1.13;;
15443;SDS011;7822;48.146;11.576;2023-04-24T13:29:57;1.53;;;1.10;;
15443;SDS011;7822;48.146;11.576;2023-04-24T13:32:25;2.33;;;1.00;;
15443;SDS011;7822;48.146;11.576;2023-04-24T13:34:54;2.97;;;1.30;;
15443;SDS011;7822;48.146;11.576;2023-04-24T13:37:22;2.47;;;1.20;;
15443;SDS011;7822;48.146;11.576;2023-04-24T13:39:49;1.57;;;1.00;;
15443;SDS011;7822;48.146;11.576;2023-04-24T13:42:17;2.33;;;1.30;;
15443;SDS011;7822;48.146;11.576;2023-04-24T13:44:47;2.10;;;1.30;;
15443;SDS011;7822;48.146;11.576;2023-04-24T13:47:15;2.97;;;1.20;;
15443;SDS011;7822;48.146;11.576;2023-04-24T13:49:42;1.77;;;1.40;;
15443;SDS011;7822;48.146;11.576;2023-04-24T13:52:10;1.27;;;1.10;;
15443;SDS011;7822;48.146;11.576;2023-04-24T13:54:38;1.77;;;1.27;;
15443;SDS011;7822;48.146;11.576;2023-04-24T13:57:05;2.10;;;1.40;;
15443;SDS011;7822;48.146;11.576;2023-04-24T13:59:33;2.37;;;1.33;;
15443;SDS011;7822;48.146;11.576;2023-04-24T14:02:02;2.07;;;1.37;;
15443;SDS011;7822;48.146;11.576;2023-04-24T14:04:30;1.53;;;1.03;;
15443;SDS011;7822;48.146;11.576;2023-04-24T14:06:58;3.03;;;1.57;;
15443;SDS011;7822;48.146;11.576;2023-04-24T14:09:25;1.53;;;1.23;;
15443;SDS011;7822;48.146;11.576;2023-04-24T14:11:53;2.00;;;1.13;;
15443;SDS011;7822;48.146;11.576;2023-04-24T14:14:21;1.63;;;1.47;;
15443;SDS011;7822;48.146;11.576;2023-04-24T14:16:48;2.00;;;1.27;;
15443;SDS011;7822;48.146;11.576;2023-04-24T14:19:17;1.77;;;1.50;;
15443;SDS011;7822;48.146;11.576;2023-04-24T14:21:45;2.70;;;1.60;;
15443;SDS011;7822;48.146;11.576;2023-04-24T14:24:13;2.30;;;1.30;;
15443;SDS011;7822;48.146;11.576;2023-04-24T14:26:40;2.83;;;1.30;;
15443;SDS011;7822;48.146;11.576;2023-04-24T14:29:08;1.63;;;1.27;;
15443;SDS011;7822;48.146;11.576;2023-04-24T14:31:40;2.57;;;1.33;;
15443;SDS011;7822;48.146;11.576;2023-04-24T14:34:08;1.83;;;1.30;;
15443;SDS011;7822;48.146;11.576;2023-04-24T14:36:37;2.10;;;1.40;;
15443;SDS011;7822;48.146;11.576;2023-04-24T14:39:05;2.63;;;1.70;;
15443;SDS011;7822;48.146;11.576;2023-04-24T14:41:33;3.03;;;1.20;;
15443;SDS011;7822;48.146;11.576;2023-04-24T14:44:03;2.20;;;1.50;;
15443;SDS011;7822;48.146;11.576;2023-04-24T14:46:31;1.73;;;1.27;;
15443;SDS011;7822;48.146;11.576;2023-04-24T14:49:00;4.00;;;1.47;;
15443;SDS011;7822;48.146;11.576;2023-04-24T14:51:27;2.40;;;1.53;;
15443;SDS011;7822;48.146;11.576;2023-04-24T14:53:56;3.53;;;1.67;;
15443;SDS011;7822;48.146;11.576;2023-04-24T14:56:24;2.63;;;1.50;;
15443;SDS011;7822;48.146;11.576;2023-04-24T14:58:52;3.13;;;1.33;;
15443;SDS011;7822;48.146;11.576;2023-04-24T15:01:20;1.93;;;1.27;;